Time;durP1;ratioP1;P1;durP2;ratioP2;P2;SDS_P1;SDS_P2;PMS_P1;PMS_P2;Temp;Humidity;BMP_temperature;BMP_pressure;BME280_temperature;BME280_humidity;BME280_pressure;Samples;Min_cycle;Max_cycle;Signal;HPM_P1;HPM_P2
2022/12/19 00:00:15;;;;;;;;;;;;;;;19.07;28.25;96592.81;10397564;28;2042;-49
2022/12/19 00:05:25;;;;;;;;;;;;;;;19.06;28.24;96609.59;10394577;28;1997;-50
2022/12/19 00:10:26;;;;;;;;;;;;;;;19.03;28.37;96577.75;10407519;28;2026;-52
2022/12/19 00:15:26;;;;;;;;;;;;;;;19.02;28.37;96581.44;10398286;28;2068;-50
2022/12/19 00:20:26;;;;;;;;;;;;;;;19.00;28.45;96565.13;10387387;28;2065;-51
2022/12/19 00:25:27;;;;;;;;;;;;;;;18.99;28.38;96548.56;10390281;28;2040;-51
2022/12/19 00:30:27;;;;;;;;;;;;;;;18.98;28.35;96535.66;10384549;28;2112;-50
2022/12/19 00:35:27;;;;;;;;;;;;;;;18.97;28.37;96513.06;10394669;28;2339;-51
2022/12/19 00:40:27;;;;;;;;;;;;;;;18.94;28.48;96527.47;10393394;28;2168;-52
2022/12/19 00:45:28;;;;;;;;;;;;;;;18.91;28.47;96561.31;10407675;28;2040;-50
2022/12/19 00:50:31;;;;;;;;;;;;;;;18.90;28.50;96581.53;10393354;28;2391;-50
2022/12/19 00:55:31;;;;;;;;;;;;;;;18.86;28.31;96569.91;10388385;28;2044;-51
2022/12/19 01:00:31;;;;;;;;;;;;;;;18.84;28.44;96553.59;10391850;28;2070;-51
2022/12/19 01:05:41;;;;;;;;;;;;;;;18.80;28.60;96547.25;10392966;28;2093;-53
2022/12/19 01:10:45;;;;;;;;;;;;;;;18.77;28.60;96545.13;10395605;28;2156;-50
2022/12/19 01:15:46;;;;;;;;;;;;;;;18.74;28.70;96532.47;10401015;28;2125;-50
2022/12/19 01:20:46;;;;;;;;;;;;;;;18.71;28.57;96530.34;10395082;28;2020;-53
2022/12/19 01:25:47;;;;;;;;;;;;;;;18.68;28.76;96520.31;10398768;28;2006;-51
2022/12/19 01:30:47;;;;;;;;;;;;;;;18.65;28.73;96520.78;10389168;28;2141;-53
2022/12/19 01:35:48;;;;;;;;;;;;;;;18.64;28.61;96530.50;10403902;28;1969;-53
2022/12/19 01:40:49;;;;;;;;;;;;;;;18.61;28.70;96545.94;10385354;28;1997;-53
2022/12/19 01:45:53;;;;;;;;;;;;;;;18.58;28.76;96568.25;10400869;28;2109;-48
2022/12/19 01:51:13;;;;;;;;;;;;;;;18.55;28.64;96567.91;10389679;28;2165;-50
2022/12/19 01:56:13;;;;;;;;;;;;;;;18.53;28.47;96567.34;10406976;28;1990;-50
2022/12/19 02:01:14;;;;;;;;;;;;;;;18.49;28.67;96572.28;10397595;28;2030;-52
2022/12/19 02:06:14;;;;;;;;;;;;;;;18.47;28.66;96581.44;10411417;28;2050;-49
2022/12/19 02:11:16;;;;;;;;;;;;;;;18.45;28.54;96570.38;10404257;28;2001;-53
2022/12/19 02:16:36;;;;;;;;;;;;;;;18.43;28.60;96580.28;10400277;28;1987;-48
2022/12/19 02:21:39;;;;;;;;;;;;;;;18.40;28.63;96573.69;10397323;28;1998;-52
2022/12/19 02:26:51;;;;;;;;;;;;;;;18.38;28.63;96575.00;10399104;28;2034;-52
2022/12/19 02:31:54;;;;;;;;;;;;;;;18.37;28.62;96587.31;10402270;28;2002;-53
2022/12/19 02:36:56;;;;;;;;;;;;;;;18.33;28.51;96588.81;10401722;28;2101;-50
2022/12/19 02:41:56;;;;;;;;;;;;;;;18.32;28.46;96583.81;10396783;28;2086;-51
2022/12/19 02:46:57;;;;;;;;;;;;;;;18.29;28.52;96586.91;10404466;28;2056;-50
2022/12/19 02:52:07;;;;;;;;;;;;;;;18.28;28.53;96619.44;10417065;28;2051;-48
2022/12/19 02:57:11;;;;;;;;;;;;;;;18.26;28.52;96597.91;10389037;28;2093;-50
2022/12/19 03:02:40;;;;;;;;;;;;;;;18.23;28.40;96604.41;10388240;28;2157;-48
2022/12/19 03:07:41;;;;;;;;;;;;;;;18.22;28.31;96617.75;10394252;28;2147;-49
2022/12/19 03:12:45;;;;;;;;;;;;;;;18.19;28.25;96605.13;10395446;28;2077;-47
2022/12/19 03:17:46;;;;;;;;;;;;;;;18.18;28.28;96606.13;10409967;28;2069;-53
2022/12/19 03:22:46;;;;;;;;;;;;;;;18.14;28.27;96626.81;10383044;28;2089;-53
2022/12/19 03:27:47;;;;;;;;;;;;;;;18.13;28.28;96625.25;10392360;28;2016;-50
2022/12/19 03:32:47;;;;;;;;;;;;;;;18.11;28.22;96608.94;10392705;28;1955;-52
2022/12/19 03:37:48;;;;;;;;;;;;;;;18.11;28.28;96626.50;10394706;28;2049;-48
2022/12/19 03:43:08;;;;;;;;;;;;;;;18.08;28.31;96627.75;10390663;28;2106;-51
2022/12/19 03:48:20;;;;;;;;;;;;;;;18.06;28.17;96626.41;10397674;28;2046;-49
2022/12/19 03:53:28;;;;;;;;;;;;;;;18.04;28.17;96625.84;10386690;28;2013;-50
2022/12/19 03:58:30;;;;;;;;;;;;;;;18.03;28.07;96632.13;10397936;28;2089;-50
2022/12/19 04:03:30;;;;;;;;;;;;;;;18.01;28.19;96624.47;10397047;28;2002;-51
2022/12/19 04:08:30;;;;;;;;;;;;;;;17.98;28.01;96571.69;10390954;28;1986;-53
2022/12/19 04:13:52;;;;;;;;;;;;;;;17.96;28.14;96585.06;10392945;28;1995;-52
2022/12/19 04:18:55;;;;;;;;;;;;;;;17.94;27.88;96650.06;10407976;28;2126;-53
2022/12/19 04:23:56;;;;;;;;;;;;;;;17.92;27.99;96672.31;10386716;28;2042;-47
2022/12/19 04:28:57;;;;;;;;;;;;;;;17.91;28.00;96655.00;10410786;28;2184;-49
2022/12/19 04:33:58;;;;;;;;;;;;;;;17.89;27.90;96637.66;10408296;28;2116;-49
2022/12/19 04:38:58;;;;;;;;;;;;;;;17.88;28.00;96669.38;10391778;28;2025;-48
2022/12/19 04:43:58;;;;;;;;;;;;;;;17.87;27.98;96623.97;10399887;28;2330;-54
2022/12/19 04:49:05;;;;;;;;;;;;;;;17.88;27.89;96620.34;10394946;28;2033;-49
2022/12/19 04:54:05;;;;;;;;;;;;;;;17.89;27.90;96610.63;10401247;28;2044;-49
2022/12/19 04:59:06;;;;;;;;;;;;;;;17.89;27.61;96579.94;10409328;28;2039;-50
2022/12/19 05:04:06;;;;;;;;;;;;;;;17.90;27.57;96612.22;10401567;28;2015;-52
2022/12/19 05:09:08;;;;;;;;;;;;;;;17.94;27.54;96629.09;10393873;28;2057;-53
2022/12/19 05:14:08;;;;;;;;;;;;;;;17.94;27.41;96602.06;10393384;28;2025;-54
2022/12/19 05:19:13;;;;;;;;;;;;;;;17.93;27.56;96613.59;10399563;28;2211;-49
2022/12/19 05:24:13;;;;;;;;;;;;;;;17.95;27.27;96612.31;10401118;28;2443;-51
2022/12/19 05:29:14;;;;;;;;;;;;;;;17.96;27.35;96621.78;10402193;28;2047;-52
2022/12/19 05:34:14;;;;;;;;;;;;;;;17.98;27.40;96643.31;10386660;28;1997;-50
2022/12/19 05:39:14;;;;;;;;;;;;;;;18.00;27.32;96636.00;10398231;28;1994;-51
2022/12/19 05:44:14;;;;;;;;;;;;;;;18.01;27.02;96636.81;10396856;28;2406;-54
2022/12/19 05:49:15;;;;;;;;;;;;;;;18.02;27.19;96630.53;10409961;28;2081;-49
2022/12/19 05:54:15;;;;;;;;;;;;;;;18.01;27.02;96618.47;10395225;28;2051;-49
2022/12/19 05:59:16;;;;;;;;;;;;;;;18.01;26.83;96613.97;10387807;28;2180;-51
2022/12/19 06:04:16;;;;;;;;;;;;;;;18.03;26.99;96627.69;10395001;28;2056;-51
2022/12/19 06:09:16;;;;;;;;;;;;;;;18.03;26.97;96604.06;10403382;28;2007;-54
2022/12/19 06:14:17;;;;;;;;;;;;;;;18.02;26.47;96604.28;10403101;28;2018;-54
2022/12/19 06:19:20;;;;;;;;;;;;;;;18.02;26.09;96610.34;10398928;28;2116;-49
2022/12/19 06:24:20;;;;;;;;;;;;;;;18.08;26.72;96621.72;10388704;28;1986;-53
2022/12/19 06:29:20;;;;;;;;;;;;;;;18.06;26.07;96614.09;10402977;28;1986;-51
2022/12/19 06:34:21;;;;;;;;;;;;;;;18.09;25.63;96618.06;10400599;28;2075;-51
2022/12/19 06:39:23;;;;;;;;;;;;;;;18.11;25.65;96629.13;10399333;28;2096;-52
2022/12/19 06:44:23;;;;;;;;;;;;;;;18.12;25.61;96636.75;10393385;28;2023;-48
2022/12/19 06:49:23;;;;;;;;;;;;;;;18.16;25.30;96626.56;10401950;28;2001;-50
2022/12/19 06:54:23;;;;;;;;;;;;;;;18.18;25.36;96606.13;10388476;28;2428;-52
2022/12/19 06:59:24;;;;;;;;;;;;;;;18.21;25.70;96618.78;10395452;28;2165;-50
2022/12/19 07:04:28;;;;;;;;;;;;;;;18.28;27.08;96614.97;10397281;28;2008;-52
2022/12/19 07:09:29;;;;;;;;;;;;;;;18.32;27.32;96620.56;10401342;28;2059;-50
2022/12/19 07:14:29;;;;;;;;;;;;;;;18.35;27.32;96622.69;10395124;28;2074;-52
2022/12/19 07:19:29;;;;;;;;;;;;;;;18.37;27.10;96631.94;10396677;28;2144;-54
2022/12/19 07:24:30;;;;;;;;;;;;;;;18.39;27.27;96629.06;10412513;28;2119;-52
2022/12/19 07:29:30;;;;;;;;;;;;;;;18.38;27.45;96630.88;10393123;28;2045;-49
2022/12/19 07:34:31;;;;;;;;;;;;;;;18.37;26.37;96639.81;10395501;28;2167;-53
2022/12/19 07:39:32;;;;;;;;;;;;;;;18.41;25.88;96632.25;10395081;28;2088;-52
2022/12/19 07:44:33;;;;;;;;;;;;;;;18.40;25.89;96630.66;10392262;28;2043;-51
2022/12/19 07:49:33;;;;;;;;;;;;;;;18.42;25.64;96639.09;10393232;28;2313;-52
2022/12/19 07:54:34;;;;;;;;;;;;;;;18.42;25.38;96639.09;10387071;28;2038;-51
2022/12/19 07:59:35;;;;;;;;;;;;;;;18.44;25.56;96637.06;10389117;28;2140;-55
2022/12/19 08:04:35;;;;;;;;;;;;;;;18.45;25.45;96639.44;10390335;28;2360;-49
2022/12/19 08:09:35;;;;;;;;;;;;;;;18.48;25.52;96632.91;10394825;28;2085;-51
2022/12/19 08:14:35;;;;;;;;;;;;;;;18.48;25.23;96633.72;10388004;28;2027;-51
2022/12/19 08:19:36;;;;;;;;;;;;;;;18.51;25.69;96627.19;10397905;28;2109;-54
2022/12/19 08:24:36;;;;;;;;;;;;;;;18.52;25.37;96621.72;10402916;28;2060;-49
2022/12/19 08:29:36;;;;;;;;;;;;;;;18.54;25.38;96613.59;10399145;28;2060;-52
2022/12/19 08:34:36;;;;;;;;;;;;;;;18.55;25.20;96604.66;10402370;28;2076;-53
2022/12/19 08:39:37;;;;;;;;;;;;;;;18.57;25.22;96586.84;10401187;28;2188;-49
2022/12/19 08:44:37;;;;;;;;;;;;;;;18.56;25.21;96591.31;10404664;28;2080;-50
2022/12/19 08:49:37;;;;;;;;;;;;;;;18.59;25.35;96584.75;10397972;28;2056;-51
2022/12/19 08:54:38;;;;;;;;;;;;;;;18.61;25.15;96590.56;10402898;28;2025;-52
2022/12/19 08:59:38;;;;;;;;;;;;;;;18.62;25.71;96582.47;10401098;28;2046;-51
2022/12/19 09:04:38;;;;;;;;;;;;;;;18.65;25.33;96565.41;10402166;28;2205;-53
2022/12/19 09:09:38;;;;;;;;;;;;;;;18.63;25.10;96554.38;10402257;28;2355;-53
2022/12/19 09:14:39;;;;;;;;;;;;;;;18.66;25.17;96540.75;10400066;28;2022;-48
2022/12/19 09:19:39;;;;;;;;;;;;;;;18.69;26.03;96542.91;10392640;28;2022;-51
2022/12/19 09:24:39;;;;;;;;;;;;;;;18.68;25.83;96557.06;10388380;28;2026;-52
2022/12/19 09:29:41;;;;;;;;;;;;;;;18.70;25.87;96570.75;10391478;28;2068;-50
2022/12/19 09:34:41;;;;;;;;;;;;;;;18.67;26.28;96573.84;10403016;28;2041;-49
2022/12/19 09:39:41;;;;;;;;;;;;;;;18.63;26.27;96575.38;10404343;28;2164;-47
2022/12/19 09:44:46;;;;;;;;;;;;;;;18.62;26.77;96571.16;10401525;28;2346;-52
2022/12/19 09:49:57;;;;;;;;;;;;;;;18.61;26.85;96566.94;10413586;28;2071;-50
2022/12/19 09:55:02;;;;;;;;;;;;;;;18.65;26.94;96568.84;10400721;28;2026;-53
2022/12/19 10:00:04;;;;;;;;;;;;;;;18.63;27.13;96570.13;10404039;28;2097;-48
2022/12/19 10:05:04;;;;;;;;;;;;;;;18.63;27.16;96560.41;10387398;28;2042;-50
2022/12/19 10:10:04;;;;;;;;;;;;;;;18.60;27.45;96560.91;10395086;28;1989;-54
2022/12/19 10:15:07;;;;;;;;;;;;;;;18.60;27.63;96557.47;10397255;28;2060;-49
2022/12/19 10:20:24;;;;;;;;;;;;;;;18.53;27.65;96562.09;10400387;28;2329;-53
2022/12/19 10:25:28;;;;;;;;;;;;;;;18.47;27.43;96581.44;10414141;28;1989;-46
2022/12/19 10:30:29;;;;;;;;;;;;;;;18.41;27.47;96564.00;10397360;28;2144;-52
2022/12/19 10:35:33;;;;;;;;;;;;;;;18.38;27.52;96554.75;10403682;28;2173;-47
2022/12/19 10:40:36;;;;;;;;;;;;;;;18.35;27.40;96547.38;10394225;28;2061;-48
2022/12/19 10:45:38;;;;;;;;;;;;;;;18.32;27.42;96539.19;10417971;28;2095;-50
2022/12/19 10:50:38;;;;;;;;;;;;;;;18.31;27.44;96514.78;10379702;28;2213;-48
2022/12/19 10:55:42;;;;;;;;;;;;;;;18.26;27.45;96512.06;10397210;28;2112;-52
2022/12/19 11:00:46;;;;;;;;;;;;;;;18.23;27.66;96490.75;10395256;28;2093;-49
2022/12/19 11:05:50;;;;;;;;;;;;;;;18.18;27.54;96467.88;10384112;28;2017;-52
2022/12/19 11:10:55;;;;;;;;;;;;;;;18.15;27.80;96451.81;10386469;28;2051;-52
2022/12/19 11:15:55;;;;;;;;;;;;;;;18.13;27.81;96467.81;10389397;28;2105;-51
2022/12/19 11:21:00;;;;;;;;;;;;;;;18.08;27.86;96483.47;10397269;28;2114;-54
2022/12/19 11:26:03;;;;;;;;;;;;;;;18.10;27.95;96478.78;10393391;28;1978;-49
2022/12/19 11:31:22;;;;;;;;;;;;;;;18.05;28.32;96462.97;10389151;28;2057;-51
2022/12/19 11:36:49;;;;;;;;;;;;;;;18.08;29.10;96451.19;10406575;28;2337;-50
2022/12/19 11:41:59;;;;;;;;;;;;;;;18.08;29.76;96440.69;10388441;28;2142;-48
2022/12/19 11:47:04;;;;;;;;;;;;;;;18.13;29.81;96441.56;10394920;28;1989;-49
2022/12/19 11:52:09;;;;;;;;;;;;;;;18.09;29.86;96448.34;10392286;28;2487;-45
2022/12/19 11:57:10;;;;;;;;;;;;;;;18.04;30.03;96445.63;10413000;28;2021;-47
2022/12/19 12:02:34;;;;;;;;;;;;;;;18.00;29.89;96459.44;10391473;28;2028;-46
2022/12/19 12:07:36;;;;;;;;;;;;;;;18.00;29.98;96460.25;10385172;28;2009;-46
2022/12/19 12:12:42;;;;;;;;;;;;;;;17.99;30.16;96447.38;10398962;28;2025;-49
2022/12/19 12:17:50;;;;;;;;;;;;;;;18.00;30.18;96449.75;10411458;28;1934;-49
2022/12/19 12:22:54;;;;;;;;;;;;;;;17.98;30.25;96435.28;10399086;28;2031;-47
2022/12/19 12:28:07;;;;;;;;;;;;;;;17.96;30.32;96439.97;10410433;28;2096;-47
2022/12/19 12:33:26;;;;;;;;;;;;;;;17.94;30.25;96439.44;10397692;28;2049;-47
2022/12/19 12:38:39;;;;;;;;;;;;;;;17.90;30.06;96444.38;10390014;28;2041;-50
2022/12/19 12:43:39;;;;;;;;;;;;;;;17.85;30.00;96447.69;10390025;28;2080;-49
2022/12/19 12:48:39;;;;;;;;;;;;;;;17.82;30.21;96439.53;10403295;28;2215;-51
2022/12/19 12:53:41;;;;;;;;;;;;;;;17.85;29.95;96426.72;10392227;28;2141;-47
2022/12/19 12:58:42;;;;;;;;;;;;;;;17.88;29.94;96412.34;10389080;28;2007;-48
2022/12/19 13:03:42;;;;;;;;;;;;;;;17.83;29.87;96418.31;10386713;28;1942;-47
2022/12/19 13:08:43;;;;;;;;;;;;;;;17.84;29.80;96414.66;10404526;28;2000;-48
2022/12/19 13:13:50;;;;;;;;;;;;;;;17.86;29.87;96428.31;10384912;28;2056;-48
2022/12/19 13:19:01;;;;;;;;;;;;;;;17.83;29.95;96423.53;10388991;28;2160;-46
2022/12/19 13:24:12;;;;;;;;;;;;;;;17.86;29.85;96412.59;10400374;28;2106;-49
2022/12/19 13:29:32;;;;;;;;;;;;;;;17.88;29.84;96421.00;10390836;28;2049;-48
2022/12/19 13:34:36;;;;;;;;;;;;;;;17.91;29.90;96414.47;10392213;28;2056;-49
2022/12/19 13:39:42;;;;;;;;;;;;;;;17.95;29.78;96384.09;10398166;28;1983;-46
2022/12/19 13:44:42;;;;;;;;;;;;;;;17.89;29.64;96388.50;10400764;28;2100;-49
2022/12/19 13:49:42;;;;;;;;;;;;;;;17.85;31.62;96376.88;10391168;28;2231;-51
2022/12/19 13:54:58;;;;;;;;;;;;;;;17.85;32.44;96384.75;10389570;28;2049;-49
2022/12/19 14:00:02;;;;;;;;;;;;;;;17.82;33.44;96393.13;10395557;28;2125;-51
2022/12/19 14:05:03;;;;;;;;;;;;;;;17.78;34.21;96399.84;10400734;28;2025;-47
2022/12/19 14:10:24;;;;;;;;;;;;;;;17.78;33.60;96404.31;10398802;28;2048;-46
2022/12/19 14:15:27;;;;;;;;;;;;;;;17.76;33.92;96416.88;10391360;28;2054;-48
2022/12/19 14:20:28;;;;;;;;;;;;;;;17.75;34.44;96426.56;10396257;28;2104;-49
2022/12/19 14:25:34;;;;;;;;;;;;;;;17.76;34.74;96422.91;10398494;28;2009;-47
2022/12/19 14:30:34;;;;;;;;;;;;;;;17.76;35.90;96428.16;10399350;28;2024;-48
2022/12/19 14:35:36;;;;;;;;;;;;;;;17.73;35.38;96428.63;10411359;28;2122;-46
2022/12/19 14:40:38;;;;;;;;;;;;;;;17.74;35.90;96432.84;10399972;28;2016;-50
2022/12/19 14:45:39;;;;;;;;;;;;;;;17.76;36.90;96425.53;10396418;28;2042;-47
2022/12/19 14:50:39;;;;;;;;;;;;;;;17.73;36.77;96428.63;10396347;28;2058;-47
2022/12/19 14:55:41;;;;;;;;;;;;;;;17.72;37.26;96424.41;10394671;28;1945;-50
2022/12/19 15:00:47;;;;;;;;;;;;;;;17.72;36.76;96416.53;10398195;28;2037;-49
2022/12/19 15:05:48;;;;;;;;;;;;;;;17.71;37.10;96414.16;10397181;28;2029;-49
2022/12/19 15:10:48;;;;;;;;;;;;;;;17.68;37.07;96397.09;10390735;28;2005;-50
2022/12/19 15:15:57;;;;;;;;;;;;;;;17.67;37.60;96399.94;10390806;28;2318;-51
2022/12/19 15:21:05;;;;;;;;;;;;;;;17.63;37.20;96402.25;10391302;28;2342;-50
2022/12/19 15:26:06;;;;;;;;;;;;;;;17.66;36.54;96404.41;10406771;28;2075;-50
2022/12/19 15:31:18;;;;;;;;;;;;;;;17.65;37.02;96409.88;10386420;28;2046;-47
2022/12/19 15:36:19;;;;;;;;;;;;;;;17.63;37.38;96415.38;10377533;28;2029;-50
2022/12/19 15:41:20;;;;;;;;;;;;;;;17.62;36.98;96402.50;10387235;28;2054;-53
2022/12/19 15:46:22;;;;;;;;;;;;;;;17.63;37.46;96411.94;10393849;28;2014;-51
2022/12/19 15:51:22;;;;;;;;;;;;;;;17.59;37.94;96408.22;10394711;28;2076;-50
2022/12/19 15:56:29;;;;;;;;;;;;;;;17.58;37.43;96412.66;10398850;28;2070;-51
2022/12/19 16:01:31;;;;;;;;;;;;;;;17.58;37.05;96428.38;10395145;28;2074;-52
2022/12/19 16:06:32;;;;;;;;;;;;;;;17.58;36.08;96420.53;10389819;28;2034;-51
2022/12/19 16:11:35;;;;;;;;;;;;;;;17.60;36.44;96413.22;10395054;28;2053;-51
2022/12/19 16:16:35;;;;;;;;;;;;;;;17.64;36.26;96414.31;10387352;28;2090;-50
2022/12/19 16:21:36;;;;;;;;;;;;;;;17.65;37.10;96413.31;10366671;28;2029;-51
2022/12/19 16:26:36;;;;;;;;;;;;;;;17.68;36.49;96422.53;10382892;28;2048;-49
2022/12/19 16:31:36;;;;;;;;;;;;;;;17.71;36.25;96430.72;10387496;28;2029;-47
2022/12/19 16:36:37;;;;;;;;;;;;;;;17.75;35.35;96450.16;10386298;28;2204;-52
2022/12/19 16:41:39;;;;;;;;;;;;;;;17.77;35.71;96442.06;10395114;28;2007;-48
2022/12/19 16:46:39;;;;;;;;;;;;;;;17.78;34.82;96428.69;10406697;28;2049;-50
2022/12/19 16:51:40;;;;;;;;;;;;;;;17.80;35.11;96429.25;10400232;28;2190;-49
2022/12/19 16:56:45;;;;;;;;;;;;;;;17.82;34.63;96440.31;10405192;28;2056;-50
2022/12/19 17:01:45;;;;;;;;;;;;;;;17.84;34.57;96429.59;10415928;28;2012;-49
2022/12/19 17:06:46;;;;;;;;;;;;;;;17.84;34.27;96427.78;10392004;28;2042;-49
2022/12/19 17:11:49;;;;;;;;;;;;;;;17.90;33.63;96431.25;10405523;28;2506;-53
2022/12/19 17:16:52;;;;;;;;;;;;;;;17.90;33.15;96428.63;10402381;28;2176;-51
2022/12/19 17:21:52;;;;;;;;;;;;;;;17.93;33.09;96424.75;10401684;28;2045;-53
2022/12/19 17:26:53;;;;;;;;;;;;;;;17.94;33.43;96421.88;10412052;28;2064;-51
2022/12/19 17:31:54;;;;;;;;;;;;;;;17.97;32.78;96420.59;10398357;28;2082;-48
2022/12/19 17:36:54;;;;;;;;;;;;;;;17.98;32.69;96415.09;10401828;28;2071;-51
2022/12/19 17:41:55;;;;;;;;;;;;;;;17.99;32.22;96411.44;10414530;28;2191;-52
2022/12/19 17:46:55;;;;;;;;;;;;;;;18.03;32.10;96411.78;10410982;28;2274;-46
2022/12/19 17:51:55;;;;;;;;;;;;;;;18.03;31.63;96407.31;10401258;28;2194;-52
2022/12/19 17:56:56;;;;;;;;;;;;;;;18.07;31.94;96402.38;10403136;28;2094;-50
2022/12/19 18:01:56;;;;;;;;;;;;;;;18.08;31.38;96401.31;10404623;28;2213;-51
2022/12/19 18:06:56;;;;;;;;;;;;;;;18.09;31.13;96398.47;10398131;28;1986;-48
2022/12/19 18:11:57;;;;;;;;;;;;;;;18.11;31.33;96400.84;10400937;28;2077;-51
2022/12/19 18:16:57;;;;;;;;;;;;;;;18.13;31.08;96380.41;10401370;28;2029;-52
2022/12/19 18:21:58;;;;;;;;;;;;;;;18.13;30.73;96386.47;10401456;28;1995;-52
2022/12/19 18:26:58;;;;;;;;;;;;;;;18.15;30.70;96391.47;10398400;28;1982;-52
2022/12/19 18:31:59;;;;;;;;;;;;;;;18.17;30.72;96394.66;10414382;28;2056;-48
2022/12/19 18:36:59;;;;;;;;;;;;;;;18.19;30.66;96379.44;10401283;28;1940;-50
2022/12/19 18:42:00;;;;;;;;;;;;;;;18.21;30.65;96364.25;10392713;28;2274;-53
2022/12/19 18:47:00;;;;;;;;;;;;;;;18.21;30.21;96353.75;10403971;28;1948;-48
2022/12/19 18:52:00;;;;;;;;;;;;;;;18.22;30.53;96350.88;10398047;28;2393;-50
2022/12/19 18:57:00;;;;;;;;;;;;;;;18.24;30.09;96345.38;10396632;28;1982;-47
2022/12/19 19:02:01;;;;;;;;;;;;;;;18.25;30.21;96349.59;10394853;28;1962;-53
2022/12/19 19:07:01;;;;;;;;;;;;;;;18.28;30.15;96336.00;10401879;28;2446;-51
2022/12/19 19:12:02;;;;;;;;;;;;;;;18.28;30.05;96336.78;10399398;28;2285;-51
2022/12/19 19:17:02;;;;;;;;;;;;;;;18.30;30.22;96344.44;10399768;28;2616;-50
2022/12/19 19:22:02;;;;;;;;;;;;;;;18.31;29.95;96348.63;10396336;28;2337;-48
2022/12/19 19:27:03;;;;;;;;;;;;;;;18.33;29.83;96354.44;10397786;28;2054;-48
2022/12/19 19:32:03;;;;;;;;;;;;;;;18.35;29.97;96353.16;10400325;28;1890;-50
2022/12/19 19:37:04;;;;;;;;;;;;;;;18.37;29.60;96340.56;10399963;28;2457;-47
2022/12/19 19:42:05;;;;;;;;;;;;;;;18.39;29.38;96350.81;10395989;28;2327;-49
2022/12/19 19:47:05;;;;;;;;;;;;;;;18.39;29.80;96351.63;10387079;28;2348;-49
2022/12/19 19:52:05;;;;;;;;;;;;;;;18.42;29.39;96347.72;10395945;28;2268;-52
2022/12/19 19:57:07;;;;;;;;;;;;;;;18.42;29.44;96342.47;10391987;28;2328;-52
2022/12/19 20:02:07;;;;;;;;;;;;;;;18.45;29.43;96342.00;10400023;28;2428;-49
2022/12/19 20:07:07;;;;;;;;;;;;;;;18.46;29.33;96338.34;10393701;28;2309;-48
2022/12/19 20:12:08;;;;;;;;;;;;;;;18.48;29.33;96341.53;10397041;28;2331;-49
2022/12/19 20:17:08;;;;;;;;;;;;;;;18.47;29.32;96334.66;10387379;28;2303;-50
2022/12/19 20:22:08;;;;;;;;;;;;;;;18.50;29.19;96328.94;10389540;28;2350;-47
2022/12/19 20:27:09;;;;;;;;;;;;;;;18.50;29.33;96335.00;10398846;28;2324;-49
2022/12/19 20:32:09;;;;;;;;;;;;;;;18.50;29.47;96347.31;10388199;28;1938;-47
2022/12/19 20:37:09;;;;;;;;;;;;;;;18.53;29.16;96354.69;10390422;28;2234;-47
2022/12/19 20:42:10;;;;;;;;;;;;;;;18.54;29.23;96346.59;10389776;28;2303;-48
2022/12/19 20:47:10;;;;;;;;;;;;;;;18.54;28.63;96345.78;10389859;28;2261;-47
2022/12/19 20:52:10;;;;;;;;;;;;;;;18.56;28.82;96330.56;10397320;28;2467;-51
2022/12/19 20:57:11;;;;;;;;;;;;;;;18.56;29.09;96331.38;10399881;28;2336;-48
2022/12/19 21:02:11;;;;;;;;;;;;;;;18.58;29.06;96331.13;10389006;28;2340;-49
2022/12/19 21:07:11;;;;;;;;;;;;;;;18.58;29.07;96328.50;10392229;28;2073;-50
2022/12/19 21:12:11;;;;;;;;;;;;;;;18.58;28.93;96326.69;10392198;28;2046;-52
2022/12/19 21:17:12;;;;;;;;;;;;;;;18.62;28.61;96322.50;10386135;28;2690;-47
2022/12/19 21:22:12;;;;;;;;;;;;;;;18.64;28.84;96328.31;10389144;28;2287;-52
2022/12/19 21:27:14;;;;;;;;;;;;;;;18.63;29.14;96326.72;10387841;28;2396;-49
2022/12/19 21:32:14;;;;;;;;;;;;;;;18.62;28.87;96329.59;10404277;28;1885;-50
2022/12/19 21:37:15;;;;;;;;;;;;;;;18.63;28.80;96328.53;10398309;28;2320;-50
2022/12/19 21:42:15;;;;;;;;;;;;;;;18.63;29.34;96326.72;10404408;28;2299;-53
2022/12/19 21:47:15;;;;;;;;;;;;;;;18.62;29.25;96324.34;10403662;28;2536;-47
2022/12/19 21:52:16;;;;;;;;;;;;;;;18.65;29.38;96336.97;10407909;28;2381;-51
2022/12/19 21:57:16;;;;;;;;;;;;;;;18.67;29.81;96345.38;10400883;28;2488;-50
2022/12/19 22:02:18;;;;;;;;;;;;;;;18.65;29.90;96350.09;10401896;28;2506;-50
2022/12/19 22:07:18;;;;;;;;;;;;;;;18.63;29.94;96337.22;10394962;28;2426;-49
2022/12/19 22:12:18;;;;;;;;;;;;;;;18.60;30.05;96327.22;10390960;28;2329;-50
2022/12/19 22:17:18;;;;;;;;;;;;;;;18.56;30.26;96327.97;10389221;28;2644;-46
2022/12/19 22:22:19;;;;;;;;;;;;;;;18.55;30.63;96326.34;10392082;28;2322;-49
2022/12/19 22:27:19;;;;;;;;;;;;;;;18.55;31.18;96318.47;10386918;28;2292;-51
2022/12/19 22:32:19;;;;;;;;;;;;;;;18.53;31.25;96302.97;10388499;28;2293;-47
2022/12/19 22:37:20;;;;;;;;;;;;;;;18.51;31.92;96309.50;10391600;28;2338;-52
2022/12/19 22:42:20;;;;;;;;;;;;;;;18.47;31.45;96313.66;10399947;28;2343;-52
2022/12/19 22:47:20;;;;;;;;;;;;;;;18.47;31.71;96316.28;10400843;28;2334;-47
2022/12/19 22:52:22;;;;;;;;;;;;;;;18.47;32.15;96318.91;10399819;28;1994;-47
2022/12/19 22:57:22;;;;;;;;;;;;;;;18.44;32.39;96312.31;10397728;28;1957;-47
2022/12/19 23:02:22;;;;;;;;;;;;;;;18.42;32.51;96311.75;10396952;28;2430;-48
2022/12/19 23:07:23;;;;;;;;;;;;;;;18.36;32.79;96304.09;10398554;28;2292;-46
2022/12/19 23:12:23;;;;;;;;;;;;;;;18.34;32.66;96306.94;10385356;28;2314;-51
2022/12/19 23:17:23;;;;;;;;;;;;;;;18.32;32.80;96293.25;10384129;28;2360;-47
2022/12/19 23:22:23;;;;;;;;;;;;;;;18.31;32.63;96290.91;10397059;28;1985;-47
2022/12/19 23:27:24;;;;;;;;;;;;;;;18.27;32.77;96295.03;10391830;28;2253;-51
2022/12/19 23:32:24;;;;;;;;;;;;;;;18.21;32.94;96288.97;10395675;28;2304;-48
2022/12/19 23:37:24;;;;;;;;;;;;;;;18.17;32.95;96289.69;10391070;28;2265;-50
2022/12/19 23:42:25;;;;;;;;;;;;;;;18.15;32.89;96284.69;10394481;28;2029;-50
2022/12/19 23:47:27;;;;;;;;;;;;;;;18.13;32.90;96280.72;10394515;28;2391;-48
2022/12/19 23:52:27;;;;;;;;;;;;;;;18.09;32.97;96285.69;10398016;28;2435;-48
2022/12/19 23:57:28;;;;;;;;;;;;;;;18.05;33.08;96279.34;10399424;28;2346;-46
